sensor_id;sensor_type;location;lat;lon;timestamp;temperature;humidity
20231;DHT22;10274;49.022;9.338;2023-02-03T00:02:06;7.10;1.00
20231;DHT22;10274;49.022;9.338;2023-02-03T00:04:33;7.10;1.00
20231;DHT22;10274;49.022;9.338;2023-02-03T00:07:01;7.10;1.00
20231;DHT22;10274;49.022;9.338;2023-02-03T00:09:28;7.10;1.00
20231;DHT22;10274;49.022;9.338;2023-02-03T00:11:55;7.10;1.00
20231;DHT22;10274;49.022;9.338;2023-02-03T00:14:22;7.10;1.00
20231;DHT22;10274;49.022;9.338;2023-02-03T00:16:49;7.10;1.00
20231;DHT22;10274;49.022;9.338;2023-02-03T00:19:15;7.10;1.00
20231;DHT22;10274;49.022;9.338;2023-02-03T00:21:42;7.10;1.00
20231;DHT22;10274;49.022;9.338;2023-02-03T00:24:10;7.10;1.00
20231;DHT22;10274;49.022;9.338;2023-02-03T00:26:40;7.10;1.00
20231;DHT22;10274;49.022;9.338;2023-02-03T00:29:07;7.10;1.00
20231;DHT22;10274;49.022;9.338;2023-02-03T00:31:34;7.10;1.00
20231;DHT22;10274;49.022;9.338;2023-02-03T00:34:01;7.10;1.00
20231;DHT22;10274;49.022;9.338;2023-02-03T00:36:28;7.00;1.00
20231;DHT22;10274;49.022;9.338;2023-02-03T00:38:54;7.10;1.00
20231;DHT22;10274;49.022;9.338;2023-02-03T00:41:22;7.00;1.00
20231;DHT22;10274;49.022;9.338;2023-02-03T00:43:53;7.10;1.00
20231;DHT22;10274;49.022;9.338;2023-02-03T00:46:20;7.10;1.00
20231;DHT22;10274;49.022;9.338;2023-02-03T00:48:47;7.10;1.00
20231;DHT22;10274;49.022;9.338;2023-02-03T00:51:13;7.10;1.00
20231;DHT22;10274;49.022;9.338;2023-02-03T00:53:40;7.10;1.00
20231;DHT22;10274;49.022;9.338;2023-02-03T00:56:07;7.10;1.00
20231;DHT22;10274;49.022;9.338;2023-02-03T00:58:38;7.10;1.00
20231;DHT22;10274;49.022;9.338;2023-02-03T01:01:05;7.10;1.00
20231;DHT22;10274;49.022;9.338;2023-02-03T01:03:32;7.10;1.00
20231;DHT22;10274;49.022;9.338;2023-02-03T01:06:08;7.10;1.00
20231;DHT22;10274;49.022;9.338;2023-02-03T01:08:35;7.10;1.00
20231;DHT22;10274;49.022;9.338;2023-02-03T01:11:05;7.10;1.00
20231;DHT22;10274;49.022;9.338;2023-02-03T01:13:32;7.10;1.00
20231;DHT22;10274;49.022;9.338;2023-02-03T01:16:00;7.10;1.00
20231;DHT22;10274;49.022;9.338;2023-02-03T01:18:27;7.10;1.00
20231;DHT22;10274;49.022;9.338;2023-02-03T01:20:54;7.10;1.00
20231;DHT22;10274;49.022;9.338;2023-02-03T01:23:20;7.10;1.00
20231;DHT22;10274;49.022;9.338;2023-02-03T01:25:47;7.10;1.00
20231;DHT22;10274;49.022;9.338;2023-02-03T01:28:14;7.10;1.00
20231;DHT22;10274;49.022;9.338;2023-02-03T01:30:40;7.10;1.00
20231;DHT22;10274;49.022;9.338;2023-02-03T01:33:08;7.10;1.00
20231;DHT22;10274;49.022;9.338;2023-02-03T01:35:35;7.10;1.00
20231;DHT22;10274;49.022;9.338;2023-02-03T01:38:02;7.10;1.00
20231;DHT22;10274;49.022;9.338;2023-02-03T01:40:29;7.10;1.00
20231;DHT22;10274;49.022;9.338;2023-02-03T01:42:55;7.10;1.00
20231;DHT22;10274;49.022;9.338;2023-02-03T01:45:22;7.10;1.00
20231;DHT22;10274;49.022;9.338;2023-02-03T01:47:51;7.10;1.00
20231;DHT22;10274;49.022;9.338;2023-02-03T01:50:23;7.10;1.00
20231;DHT22;10274;49.022;9.338;2023-02-03T01:52:54;7.10;1.00
20231;DHT22;10274;49.022;9.338;2023-02-03T01:55:24;7.10;1.00
20231;DHT22;10274;49.022;9.338;2023-02-03T01:57:56;7.10;1.00
20231;DHT22;10274;49.022;9.338;2023-02-03T02:00:25;7.10;1.00
20231;DHT22;10274;49.022;9.338;2023-02-03T02:02:52;7.10;1.00
20231;DHT22;10274;49.022;9.338;2023-02-03T02:05:24;7.10;1.00
20231;DHT22;10274;49.022;9.338;2023-02-03T02:07:54;7.10;1.00
20231;DHT22;10274;49.022;9.338;2023-02-03T02:10:22;7.10;1.00
20231;DHT22;10274;49.022;9.338;2023-02-03T02:12:49;7.00;1.00
20231;DHT22;10274;49.022;9.338;2023-02-03T02:15:16;7.00;1.00
20231;DHT22;10274;49.022;9.338;2023-02-03T02:18:01;7.00;1.00
20231;DHT22;10274;49.022;9.338;2023-02-03T02:20:44;7.10;1.00
20231;DHT22;10274;49.022;9.338;2023-02-03T02:23:35;7.00;1.00
20231;DHT22;10274;49.022;9.338;2023-02-03T02:26:33;7.10;1.00
20231;DHT22;10274;49.022;9.338;2023-02-03T02:29:18;7.10;1.00
20231;DHT22;10274;49.022;9.338;2023-02-03T02:31:56;7.00;1.00
20231;DHT22;10274;49.022;9.338;2023-02-03T02:34:34;7.00;1.00
20231;DHT22;10274;49.022;9.338;2023-02-03T02:37:08;7.00;1.00
20231;DHT22;10274;49.022;9.338;2023-02-03T02:39:44;7.00;1.00
20231;DHT22;10274;49.022;9.338;2023-02-03T02:42:14;7.00;1.00
20231;DHT22;10274;49.022;9.338;2023-02-03T02:44:48;7.10;1.00
20231;DHT22;10274;49.022;9.338;2023-02-03T02:47:19;7.00;1.00
20231;DHT22;10274;49.022;9.338;2023-02-03T02:49:51;7.10;1.00
20231;DHT22;10274;49.022;9.338;2023-02-03T02:52:21;7.10;1.00
20231;DHT22;10274;49.022;9.338;2023-02-03T02:54:51;7.00;1.00
20231;DHT22;10274;49.022;9.338;2023-02-03T02:57:20;7.00;1.00
20231;DHT22;10274;49.022;9.338;2023-02-03T02:59:49;7.00;1.00
20231;DHT22;10274;49.022;9.338;2023-02-03T03:02:15;7.00;1.00
20231;DHT22;10274;49.022;9.338;2023-02-03T03:04:45;7.00;1.00
20231;DHT22;10274;49.022;9.338;2023-02-03T03:07:17;7.00;1.00
20231;DHT22;10274;49.022;9.338;2023-02-03T03:09:47;7.00;1.00
20231;DHT22;10274;49.022;9.338;2023-02-03T03:12:19;7.00;1.00
20231;DHT22;10274;49.022;9.338;2023-02-03T03:14:49;7.00;1.00
20231;DHT22;10274;49.022;9.338;2023-02-03T03:17:20;7.00;1.00
20231;DHT22;10274;49.022;9.338;2023-02-03T03:19:53;7.00;1.00
20231;DHT22;10274;49.022;9.338;2023-02-03T03:22:23;7.00;1.00
20231;DHT22;10274;49.022;9.338;2023-02-03T03:24:57;7.00;1.00
20231;DHT22;10274;49.022;9.338;2023-02-03T03:27:28;6.90;1.00
20231;DHT22;10274;49.022;9.338;2023-02-03T03:30:00;7.00;1.00
20231;DHT22;10274;49.022;9.338;2023-02-03T03:32:28;7.00;1.00
20231;DHT22;10274;49.022;9.338;2023-02-03T03:34:58;7.00;1.00
20231;DHT22;10274;49.022;9.338;2023-02-03T03:37:33;7.00;1.00
20231;DHT22;10274;49.022;9.338;2023-02-03T03:40:04;7.00;1.00
20231;DHT22;10274;49.022;9.338;2023-02-03T03:42:37;7.00;1.00
20231;DHT22;10274;49.022;9.338;2023-02-03T03:45:08;7.00;1.00
20231;DHT22;10274;49.022;9.338;2023-02-03T03:47:40;7.00;1.00
20231;DHT22;10274;49.022;9.338;2023-02-03T03:50:14;7.00;1.00
20231;DHT22;10274;49.022;9.338;2023-02-03T03:52:43;7.00;1.00
20231;DHT22;10274;49.022;9.338;2023-02-03T03:55:12;7.00;1.00
20231;DHT22;10274;49.022;9.338;2023-02-03T03:57:43;7.00;1.00
20231;DHT22;10274;49.022;9.338;2023-02-03T04:00:13;7.00;1.00
20231;DHT22;10274;49.022;9.338;2023-02-03T04:02:45;6.90;1.00
20231;DHT22;10274;49.022;9.338;2023-02-03T04:05:17;6.90;1.00
20231;DHT22;10274;49.022;9.338;2023-02-03T04:07:45;6.90;1.00
20231;DHT22;10274;49.022;9.338;2023-02-03T04:10:19;6.90;1.00
20231;DHT22;10274;49.022;9.338;2023-02-03T04:12:46;6.80;9.30
20231;DHT22;10274;49.022;9.338;2023-02-03T04:15:13;6.80;1.00
20231;DHT22;10274;49.022;9.338;2023-02-03T04:17:40;6.90;1.00
20231;DHT22;10274;49.022;9.338;2023-02-03T04:20:07;6.90;1.00
20231;DHT22;10274;49.022;9.338;2023-02-03T04:22:35;6.90;1.00
20231;DHT22;10274;49.022;9.338;2023-02-03T04:25:02;6.90;1.00
20231;DHT22;10274;49.022;9.338;2023-02-03T04:27:29;6.90;1.00
20231;DHT22;10274;49.022;9.338;2023-02-03T04:29:55;6.90;1.00
20231;DHT22;10274;49.022;9.338;2023-02-03T04:32:22;6.90;1.00
20231;DHT22;10274;49.022;9.338;2023-02-03T04:34:49;6.80;3.40
20231;DHT22;10274;49.022;9.338;2023-02-03T04:37:15;6.90;6.60
20231;DHT22;10274;49.022;9.338;2023-02-03T04:39:43;6.80;15.40
20231;DHT22;10274;49.022;9.338;2023-02-03T04:42:10;6.80;39.20
20231;DHT22;10274;49.022;9.338;2023-02-03T04:44:37;6.80;37.60
20231;DHT22;10274;49.022;9.338;2023-02-03T04:47:03;6.70;51.30
20231;DHT22;10274;49.022;9.338;2023-02-03T04:49:30;6.70;55.10
20231;DHT22;10274;49.022;9.338;2023-02-03T04:51:57;6.70;58.40
20231;DHT22;10274;49.022;9.338;2023-02-03T04:54:23;6.70;74.00
20231;DHT22;10274;49.022;9.338;2023-02-03T04:56:51;6.60;90.40
20231;DHT22;10274;49.022;9.338;2023-02-03T04:59:18;6.60;97.30
20231;DHT22;10274;49.022;9.338;2023-02-03T05:01:44;6.60;99.60
20231;DHT22;10274;49.022;9.338;2023-02-03T05:04:11;6.60;97.80
20231;DHT22;10274;49.022;9.338;2023-02-03T05:06:38;6.60;98.20
20231;DHT22;10274;49.022;9.338;2023-02-03T05:09:04;6.60;99.90
20231;DHT22;10274;49.022;9.338;2023-02-03T05:11:31;6.50;99.90
20231;DHT22;10274;49.022;9.338;2023-02-03T05:13:59;6.50;99.90
20231;DHT22;10274;49.022;9.338;2023-02-03T05:16:26;6.50;99.90
20231;DHT22;10274;49.022;9.338;2023-02-03T05:18:53;6.50;99.90
20231;DHT22;10274;49.022;9.338;2023-02-03T05:21:19;6.50;99.90
20231;DHT22;10274;49.022;9.338;2023-02-03T05:23:46;6.50;99.90
20231;DHT22;10274;49.022;9.338;2023-02-03T05:26:13;6.50;99.90
20231;DHT22;10274;49.022;9.338;2023-02-03T05:28:39;6.50;99.90
20231;DHT22;10274;49.022;9.338;2023-02-03T05:31:07;6.50;99.90
20231;DHT22;10274;49.022;9.338;2023-02-03T05:33:34;6.50;99.90
20231;DHT22;10274;49.022;9.338;2023-02-03T05:36:01;6.40;99.90
20231;DHT22;10274;49.022;9.338;2023-02-03T05:38:27;6.40;99.90
20231;DHT22;10274;49.022;9.338;2023-02-03T05:40:54;6.40;99.90
20231;DHT22;10274;49.022;9.338;2023-02-03T05:43:38;6.30;99.90
20231;DHT22;10274;49.022;9.338;2023-02-03T05:46:06;6.30;99.90
20231;DHT22;10274;49.022;9.338;2023-02-03T05:48:34;6.30;99.90
20231;DHT22;10274;49.022;9.338;2023-02-03T05:51:01;6.30;99.90
20231;DHT22;10274;49.022;9.338;2023-02-03T05:53:27;6.30;99.90
20231;DHT22;10274;49.022;9.338;2023-02-03T05:55:54;6.40;99.90
20231;DHT22;10274;49.022;9.338;2023-02-03T05:58:21;6.30;99.90
20231;DHT22;10274;49.022;9.338;2023-02-03T06:00:47;6.30;99.90
20231;DHT22;10274;49.022;9.338;2023-02-03T06:03:14;6.30;99.90
20231;DHT22;10274;49.022;9.338;2023-02-03T06:05:42;6.30;99.90
20231;DHT22;10274;49.022;9.338;2023-02-03T06:08:09;6.30;99.90
20231;DHT22;10274;49.022;9.338;2023-02-03T06:10:36;6.30;99.90
20231;DHT22;10274;49.022;9.338;2023-02-03T06:13:09;6.30;99.90
20231;DHT22;10274;49.022;9.338;2023-02-03T06:15:36;6.30;99.90
20231;DHT22;10274;49.022;9.338;2023-02-03T06:18:03;6.30;99.90
20231;DHT22;10274;49.022;9.338;2023-02-03T06:20:30;6.40;99.90
20231;DHT22;10274;49.022;9.338;2023-02-03T06:22:58;6.40;99.90
20231;DHT22;10274;49.022;9.338;2023-02-03T06:25:25;6.30;99.90
20231;DHT22;10274;49.022;9.338;2023-02-03T06:27:52;6.30;99.90
20231;DHT22;10274;49.022;9.338;2023-02-03T06:30:18;6.30;99.90
20231;DHT22;10274;49.022;9.338;2023-02-03T06:32:48;6.30;99.90
20231;DHT22;10274;49.022;9.338;2023-02-03T06:35:15;6.30;99.90
20231;DHT22;10274;49.022;9.338;2023-02-03T06:37:41;6.20;99.90
20231;DHT22;10274;49.022;9.338;2023-02-03T06:40:11;6.20;99.90
20231;DHT22;10274;49.022;9.338;2023-02-03T06:42:38;6.20;99.90
20231;DHT22;10274;49.022;9.338;2023-02-03T06:45:05;6.30;99.90
20231;DHT22;10274;49.022;9.338;2023-02-03T06:47:32;6.20;99.90
20231;DHT22;10274;49.022;9.338;2023-02-03T06:50:00;6.30;99.90
20231;DHT22;10274;49.022;9.338;2023-02-03T06:52:26;6.20;99.90
20231;DHT22;10274;49.022;9.338;2023-02-03T06:54:53;6.30;99.90
20231;DHT22;10274;49.022;9.338;2023-02-03T06:57:21;6.30;99.90
20231;DHT22;10274;49.022;9.338;2023-02-03T06:59:47;6.30;99.90
20231;DHT22;10274;49.022;9.338;2023-02-03T07:02:15;6.30;99.90
20231;DHT22;10274;49.022;9.338;2023-02-03T07:04:41;6.30;99.90
20231;DHT22;10274;49.022;9.338;2023-02-03T07:07:09;6.30;99.90
20231;DHT22;10274;49.022;9.338;2023-02-03T07:09:36;6.40;99.90
20231;DHT22;10274;49.022;9.338;2023-02-03T07:12:03;6.40;99.90
20231;DHT22;10274;49.022;9.338;2023-02-03T07:14:31;6.40;99.90
20231;DHT22;10274;49.022;9.338;2023-02-03T07:16:59;6.40;99.90
20231;DHT22;10274;49.022;9.338;2023-02-03T07:19:26;6.40;99.90
20231;DHT22;10274;49.022;9.338;2023-02-03T07:21:53;6.40;99.90
20231;DHT22;10274;49.022;9.338;2023-02-03T07:24:19;6.50;99.90
20231;DHT22;10274;49.022;9.338;2023-02-03T07:26:46;6.50;99.90
20231;DHT22;10274;49.022;9.338;2023-02-03T07:29:13;6.50;99.90
20231;DHT22;10274;49.022;9.338;2023-02-03T07:31:41;6.50;99.90
20231;DHT22;10274;49.022;9.338;2023-02-03T07:34:08;6.50;99.90
20231;DHT22;10274;49.022;9.338;2023-02-03T07:36:34;6.50;99.90
20231;DHT22;10274;49.022;9.338;2023-02-03T07:39:01;6.50;99.90
20231;DHT22;10274;49.022;9.338;2023-02-03T07:41:28;6.50;99.90
20231;DHT22;10274;49.022;9.338;2023-02-03T07:43:54;6.60;99.90
20231;DHT22;10274;49.022;9.338;2023-02-03T07:46:21;6.60;99.90
20231;DHT22;10274;49.022;9.338;2023-02-03T07:48:49;6.60;99.90
20231;DHT22;10274;49.022;9.338;2023-02-03T07:51:15;6.60;99.90
20231;DHT22;10274;49.022;9.338;2023-02-03T07:53:42;6.60;99.90
20231;DHT22;10274;49.022;9.338;2023-02-03T07:56:09;6.60;99.90
20231;DHT22;10274;49.022;9.338;2023-02-03T07:58:36;6.70;99.90
20231;DHT22;10274;49.022;9.338;2023-02-03T08:01:09;6.70;99.90
20231;DHT22;10274;49.022;9.338;2023-02-03T08:03:36;6.70;99.90
20231;DHT22;10274;49.022;9.338;2023-02-03T08:06:05;6.70;99.90
20231;DHT22;10274;49.022;9.338;2023-02-03T08:08:32;6.70;99.90
20231;DHT22;10274;49.022;9.338;2023-02-03T08:10:58;6.70;99.90
20231;DHT22;10274;49.022;9.338;2023-02-03T08:13:25;6.80;99.90
20231;DHT22;10274;49.022;9.338;2023-02-03T08:15:52;6.80;99.90
20231;DHT22;10274;49.022;9.338;2023-02-03T08:18:19;6.80;99.90
20231;DHT22;10274;49.022;9.338;2023-02-03T08:20:45;6.80;99.90
20231;DHT22;10274;49.022;9.338;2023-02-03T08:23:13;6.90;99.90
20231;DHT22;10274;49.022;9.338;2023-02-03T08:25:40;6.80;99.90
20231;DHT22;10274;49.022;9.338;2023-02-03T08:28:07;6.80;99.90
20231;DHT22;10274;49.022;9.338;2023-02-03T08:30:34;6.80;99.90
20231;DHT22;10274;49.022;9.338;2023-02-03T08:33:00;6.90;99.90
20231;DHT22;10274;49.022;9.338;2023-02-03T08:35:27;6.90;99.90
20231;DHT22;10274;49.022;9.338;2023-02-03T08:37:54;6.90;99.90
20231;DHT22;10274;49.022;9.338;2023-02-03T08:40:22;6.90;99.90
20231;DHT22;10274;49.022;9.338;2023-02-03T08:42:49;6.90;99.90
20231;DHT22;10274;49.022;9.338;2023-02-03T08:45:15;6.90;99.90
20231;DHT22;10274;49.022;9.338;2023-02-03T08:47:42;6.90;99.90
20231;DHT22;10274;49.022;9.338;2023-02-03T08:50:09;6.90;99.00
20231;DHT22;10274;49.022;9.338;2023-02-03T08:52:38;7.00;91.70
20231;DHT22;10274;49.022;9.338;2023-02-03T08:55:05;7.00;96.50
20231;DHT22;10274;49.022;9.338;2023-02-03T08:57:34;7.00;75.20
20231;DHT22;10274;49.022;9.338;2023-02-03T09:00:01;7.00;76.80
20231;DHT22;10274;49.022;9.338;2023-02-03T09:02:28;7.00;87.40
20231;DHT22;10274;49.022;9.338;2023-02-03T09:04:55;7.00;89.40
20231;DHT22;10274;49.022;9.338;2023-02-03T09:07:21;7.20;91.60
20231;DHT22;10274;49.022;9.338;2023-02-03T09:09:48;7.30;71.70
20231;DHT22;10274;49.022;9.338;2023-02-03T09:12:15;7.20;72.70
20231;DHT22;10274;49.022;9.338;2023-02-03T09:14:44;7.10;93.20
20231;DHT22;10274;49.022;9.338;2023-02-03T09:17:10;7.10;95.00
20231;DHT22;10274;49.022;9.338;2023-02-03T09:19:37;7.20;94.50
20231;DHT22;10274;49.022;9.338;2023-02-03T09:22:04;7.30;77.30
20231;DHT22;10274;49.022;9.338;2023-02-03T09:24:30;7.30;84.60
20231;DHT22;10274;49.022;9.338;2023-02-03T09:26:57;7.30;84.60
20231;DHT22;10274;49.022;9.338;2023-02-03T09:29:25;7.40;92.20
20231;DHT22;10274;49.022;9.338;2023-02-03T09:31:53;7.30;64.10
20231;DHT22;10274;49.022;9.338;2023-02-03T09:34:20;7.20;72.60
20231;DHT22;10274;49.022;9.338;2023-02-03T09:36:47;7.30;87.20
20231;DHT22;10274;49.022;9.338;2023-02-03T09:39:14;7.20;78.40
20231;DHT22;10274;49.022;9.338;2023-02-03T09:42:02;7.20;93.80
20231;DHT22;10274;49.022;9.338;2023-02-03T09:44:38;7.20;99.90
20231;DHT22;10274;49.022;9.338;2023-02-03T09:47:11;7.10;95.30
20231;DHT22;10274;49.022;9.338;2023-02-03T09:49:41;7.20;99.90
20231;DHT22;10274;49.022;9.338;2023-02-03T09:52:14;7.20;99.90
20231;DHT22;10274;49.022;9.338;2023-02-03T09:54:47;7.20;99.90
20231;DHT22;10274;49.022;9.338;2023-02-03T09:57:19;7.20;96.30
20231;DHT22;10274;49.022;9.338;2023-02-03T09:59:47;7.20;95.20
20231;DHT22;10274;49.022;9.338;2023-02-03T10:02:29;7.30;84.30
20231;DHT22;10274;49.022;9.338;2023-02-03T10:05:03;7.30;93.40
20231;DHT22;10274;49.022;9.338;2023-02-03T10:07:38;7.30;93.30
20231;DHT22;10274;49.022;9.338;2023-02-03T10:10:15;7.40;77.90
20231;DHT22;10274;49.022;9.338;2023-02-03T10:12:52;7.40;68.90
20231;DHT22;10274;49.022;9.338;2023-02-03T10:15:46;7.40;68.70
20231;DHT22;10274;49.022;9.338;2023-02-03T10:18:20;7.40;60.40
20231;DHT22;10274;49.022;9.338;2023-02-03T10:20:49;7.50;44.60
20231;DHT22;10274;49.022;9.338;2023-02-03T10:23:19;7.40;46.50
20231;DHT22;10274;49.022;9.338;2023-02-03T10:25:51;7.40;39.60
20231;DHT22;10274;49.022;9.338;2023-02-03T10:28:21;7.40;45.20
20231;DHT22;10274;49.022;9.338;2023-02-03T10:30:51;7.40;68.90
20231;DHT22;10274;49.022;9.338;2023-02-03T10:33:20;7.50;75.30
20231;DHT22;10274;49.022;9.338;2023-02-03T10:35:50;7.50;71.50
20231;DHT22;10274;49.022;9.338;2023-02-03T10:38:27;7.60;47.00
20231;DHT22;10274;49.022;9.338;2023-02-03T10:40:58;7.60;24.20
20231;DHT22;10274;49.022;9.338;2023-02-03T10:43:26;7.60;30.00
20231;DHT22;10274;49.022;9.338;2023-02-03T10:46:13;7.60;42.10
20231;DHT22;10274;49.022;9.338;2023-02-03T10:48:40;7.50;39.10
20231;DHT22;10274;49.022;9.338;2023-02-03T10:51:14;7.60;33.50
20231;DHT22;10274;49.022;9.338;2023-02-03T10:53:43;7.60;39.70
20231;DHT22;10274;49.022;9.338;2023-02-03T10:56:12;7.60;25.50
20231;DHT22;10274;49.022;9.338;2023-02-03T10:58:46;7.60;23.60
20231;DHT22;10274;49.022;9.338;2023-02-03T11:01:16;7.50;27.20
20231;DHT22;10274;49.022;9.338;2023-02-03T11:03:54;7.50;46.00
20231;DHT22;10274;49.022;9.338;2023-02-03T11:06:22;7.40;59.10
20231;DHT22;10274;49.022;9.338;2023-02-03T11:08:50;7.40;91.60
20231;DHT22;10274;49.022;9.338;2023-02-03T11:11:21;7.40;96.00
20231;DHT22;10274;49.022;9.338;2023-02-03T11:13:55;7.40;94.80
20231;DHT22;10274;49.022;9.338;2023-02-03T11:16:35;7.40;97.50
20231;DHT22;10274;49.022;9.338;2023-02-03T11:19:03;7.50;90.40
20231;DHT22;10274;49.022;9.338;2023-02-03T11:21:39;7.50;66.40
20231;DHT22;10274;49.022;9.338;2023-02-03T11:24:12;7.40;89.70
20231;DHT22;10274;49.022;9.338;2023-02-03T11:26:44;7.40;99.90
20231;DHT22;10274;49.022;9.338;2023-02-03T11:29:16;7.30;99.90
20231;DHT22;10274;49.022;9.338;2023-02-03T11:31:46;7.20;99.90
20231;DHT22;10274;49.022;9.338;2023-02-03T11:34:16;7.20;99.90
20231;DHT22;10274;49.022;9.338;2023-02-03T11:36:44;7.20;99.90
20231;DHT22;10274;49.022;9.338;2023-02-03T11:39:18;7.20;99.90
20231;DHT22;10274;49.022;9.338;2023-02-03T11:41:46;7.20;99.90
20231;DHT22;10274;49.022;9.338;2023-02-03T11:44:18;7.20;99.90
20231;DHT22;10274;49.022;9.338;2023-02-03T11:46:46;7.20;97.60
20231;DHT22;10274;49.022;9.338;2023-02-03T11:52:36;7.30;81.70
20231;DHT22;10274;49.022;9.338;2023-02-03T11:55:15;7.30;69.00
20231;DHT22;10274;49.022;9.338;2023-02-03T11:57:51;7.40;55.80
20231;DHT22;10274;49.022;9.338;2023-02-03T12:00:30;7.40;38.00
20231;DHT22;10274;49.022;9.338;2023-02-03T12:06:10;7.50;1.00
20231;DHT22;10274;49.022;9.338;2023-02-03T12:08:57;7.50;1.00
20231;DHT22;10274;49.022;9.338;2023-02-03T12:11:37;7.50;1.00
20231;DHT22;10274;49.022;9.338;2023-02-03T12:14:34;7.50;4.30
20231;DHT22;10274;49.022;9.338;2023-02-03T12:17:24;7.60;1.00
20231;DHT22;10274;49.022;9.338;2023-02-03T12:20:04;7.60;1.00
20231;DHT22;10274;49.022;9.338;2023-02-03T12:22:42;7.60;1.00
20231;DHT22;10274;49.022;9.338;2023-02-03T12:25:26;7.60;1.00
20231;DHT22;10274;49.022;9.338;2023-02-03T12:28:00;7.70;1.00
20231;DHT22;10274;49.022;9.338;2023-02-03T12:30:33;7.60;1.00
20231;DHT22;10274;49.022;9.338;2023-02-03T12:33:03;7.60;1.00
20231;DHT22;10274;49.022;9.338;2023-02-03T12:35:33;7.70;1.00
20231;DHT22;10274;49.022;9.338;2023-02-03T12:38:07;7.70;1.00
20231;DHT22;10274;49.022;9.338;2023-02-03T12:40:41;7.60;1.00
20231;DHT22;10274;49.022;9.338;2023-02-03T12:43:24;7.60;1.00
20231;DHT22;10274;49.022;9.338;2023-02-03T12:45:54;7.70;1.00
20231;DHT22;10274;49.022;9.338;2023-02-03T12:48:24;7.70;1.00
20231;DHT22;10274;49.022;9.338;2023-02-03T12:50:56;7.70;1.00
20231;DHT22;10274;49.022;9.338;2023-02-03T12:53:30;7.60;1.00
20231;DHT22;10274;49.022;9.338;2023-02-03T12:56:02;7.60;1.00
20231;DHT22;10274;49.022;9.338;2023-02-03T12:58:32;7.60;1.00
20231;DHT22;10274;49.022;9.338;2023-02-03T13:01:03;7.70;1.00
20231;DHT22;10274;49.022;9.338;2023-02-03T13:03:36;7.70;1.00
20231;DHT22;10274;49.022;9.338;2023-02-03T13:06:09;7.70;1.00
20231;DHT22;10274;49.022;9.338;2023-02-03T13:08:42;7.70;1.00
20231;DHT22;10274;49.022;9.338;2023-02-03T13:11:18;7.80;1.00
20231;DHT22;10274;49.022;9.338;2023-02-03T13:13:49;7.80;1.00
20231;DHT22;10274;49.022;9.338;2023-02-03T13:16:20;7.70;1.00
20231;DHT22;10274;49.022;9.338;2023-02-03T13:18:52;7.80;1.00
20231;DHT22;10274;49.022;9.338;2023-02-03T13:21:18;7.80;1.00
20231;DHT22;10274;49.022;9.338;2023-02-03T13:23:47;7.80;1.00
20231;DHT22;10274;49.022;9.338;2023-02-03T13:26:52;7.80;1.00
20231;DHT22;10274;49.022;9.338;2023-02-03T13:29:35;7.80;1.00
20231;DHT22;10274;49.022;9.338;2023-02-03T13:32:13;7.80;1.00
20231;DHT22;10274;49.022;9.338;2023-02-03T13:35:09;7.80;1.00
20231;DHT22;10274;49.022;9.338;2023-02-03T13:41:01;7.70;1.00
20231;DHT22;10274;49.022;9.338;2023-02-03T13:43:32;7.80;1.00
20231;DHT22;10274;49.022;9.338;2023-02-03T13:46:00;7.70;1.00
20231;DHT22;10274;49.022;9.338;2023-02-03T13:48:29;7.70;1.00
20231;DHT22;10274;49.022;9.338;2023-02-03T13:51:05;7.70;1.00
20231;DHT22;10274;49.022;9.338;2023-02-03T13:53:35;7.70;1.00
20231;DHT22;10274;49.022;9.338;2023-02-03T13:56:05;7.70;1.00
20231;DHT22;10274;49.022;9.338;2023-02-03T13:58:34;7.70;1.00
20231;DHT22;10274;49.022;9.338;2023-02-03T14:01:05;7.80;1.00
20231;DHT22;10274;49.022;9.338;2023-02-03T14:03:44;7.70;1.00
20231;DHT22;10274;49.022;9.338;2023-02-03T14:09:40;7.80;1.00
20231;DHT22;10274;49.022;9.338;2023-02-03T14:12:54;7.80;1.00
20231;DHT22;10274;49.022;9.338;2023-02-03T14:15:32;7.80;1.00
20231;DHT22;10274;49.022;9.338;2023-02-03T14:18:02;7.80;1.00
20231;DHT22;10274;49.022;9.338;2023-02-03T14:23:43;7.80;1.00
20231;DHT22;10274;49.022;9.338;2023-02-03T14:26:21;7.90;1.00
20231;DHT22;10274;49.022;9.338;2023-02-03T14:28:51;7.80;1.00
20231;DHT22;10274;49.022;9.338;2023-02-03T14:31:19;7.80;1.00
20231;DHT22;10274;49.022;9.338;2023-02-03T14:33:57;7.90;1.00
20231;DHT22;10274;49.022;9.338;2023-02-03T14:36:32;7.80;1.00
20231;DHT22;10274;49.022;9.338;2023-02-03T14:39:03;7.80;1.00
20231;DHT22;10274;49.022;9.338;2023-02-03T14:41:42;7.80;1.00
20231;DHT22;10274;49.022;9.338;2023-02-03T14:44:22;7.90;1.00
20231;DHT22;10274;49.022;9.338;2023-02-03T14:47:00;7.90;1.00
20231;DHT22;10274;49.022;9.338;2023-02-03T14:49:43;7.90;1.00
20231;DHT22;10274;49.022;9.338;2023-02-03T14:52:38;7.90;1.00
20231;DHT22;10274;49.022;9.338;2023-02-03T14:55:24;7.90;1.00
20231;DHT22;10274;49.022;9.338;2023-02-03T14:57:55;7.90;1.00
20231;DHT22;10274;49.022;9.338;2023-02-03T15:00:28;7.90;1.00
20231;DHT22;10274;49.022;9.338;2023-02-03T15:03:26;7.90;1.00
20231;DHT22;10274;49.022;9.338;2023-02-03T15:05:58;8.00;1.00
20231;DHT22;10274;49.022;9.338;2023-02-03T15:08:37;8.00;1.00
20231;DHT22;10274;49.022;9.338;2023-02-03T15:11:29;8.00;1.00
20231;DHT22;10274;49.022;9.338;2023-02-03T15:14:13;8.00;1.00
20231;DHT22;10274;49.022;9.338;2023-02-03T15:16:43;8.00;1.00
20231;DHT22;10274;49.022;9.338;2023-02-03T15:19:15;8.00;1.00
20231;DHT22;10274;49.022;9.338;2023-02-03T15:21:42;8.00;1.00
20231;DHT22;10274;49.022;9.338;2023-02-03T15:24:13;7.90;1.00
20231;DHT22;10274;49.022;9.338;2023-02-03T15:26:44;8.00;1.00
20231;DHT22;10274;49.022;9.338;2023-02-03T15:29:23;7.90;1.00
20231;DHT22;10274;49.022;9.338;2023-02-03T15:31:58;7.80;1.00
20231;DHT22;10274;49.022;9.338;2023-02-03T15:34:29;7.80;1.90
20231;DHT22;10274;49.022;9.338;2023-02-03T15:36:59;7.80;1.00
20231;DHT22;10274;49.022;9.338;2023-02-03T15:39:37;7.80;16.10
20231;DHT22;10274;49.022;9.338;2023-02-03T15:42:14;7.70;21.00
20231;DHT22;10274;49.022;9.338;2023-02-03T15:44:47;7.70;31.50
20231;DHT22;10274;49.022;9.338;2023-02-03T15:47:23;7.70;40.30
20231;DHT22;10274;49.022;9.338;2023-02-03T15:49:58;7.60;51.40
20231;DHT22;10274;49.022;9.338;2023-02-03T15:52:28;7.60;60.10
20231;DHT22;10274;49.022;9.338;2023-02-03T15:55:07;7.60;79.00
20231;DHT22;10274;49.022;9.338;2023-02-03T15:57:35;7.50;93.00
20231;DHT22;10274;49.022;9.338;2023-02-03T16:00:09;7.50;99.90
20231;DHT22;10274;49.022;9.338;2023-02-03T16:02:41;7.40;99.90
20231;DHT22;10274;49.022;9.338;2023-02-03T16:05:20;7.40;99.90
20231;DHT22;10274;49.022;9.338;2023-02-03T16:07:47;7.40;99.90
20231;DHT22;10274;49.022;9.338;2023-02-03T16:10:24;7.30;99.90
20231;DHT22;10274;49.022;9.338;2023-02-03T16:12:53;7.30;99.90
20231;DHT22;10274;49.022;9.338;2023-02-03T16:15:21;7.30;99.90
20231;DHT22;10274;49.022;9.338;2023-02-03T16:17:53;7.30;99.90
20231;DHT22;10274;49.022;9.338;2023-02-03T16:20:24;7.30;99.90
20231;DHT22;10274;49.022;9.338;2023-02-03T16:23:01;7.40;99.90
20231;DHT22;10274;49.022;9.338;2023-02-03T16:25:30;7.30;99.90
20231;DHT22;10274;49.022;9.338;2023-02-03T16:27:58;7.30;99.90
20231;DHT22;10274;49.022;9.338;2023-02-03T16:30:52;7.30;99.90
20231;DHT22;10274;49.022;9.338;2023-02-03T16:33:42;7.30;99.90
20231;DHT22;10274;49.022;9.338;2023-02-03T16:36:26;7.40;99.90